sensor_id;sensor_type;location;lat;lon;timestamp;pressure;altitude;pressure_sealevel;temperature;humidity
9738;BME280;4908;47.446;13.900;2023-09-08T00:00:08;93399.09;;;12.70;100.00
9738;BME280;4908;47.446;13.900;2023-09-08T00:02:35;93395.16;;;12.50;100.00
9738;BME280;4908;47.446;13.900;2023-09-08T00:05:03;93395.94;;;12.50;100.00
9738;BME280;4908;47.446;13.900;2023-09-08T00:07:31;93405.13;;;12.49;100.00
9738;BME280;4908;47.446;13.900;2023-09-08T00:09:58;93399.78;;;12.53;100.00
9738;BME280;4908;47.446;13.900;2023-09-08T00:12:25;93408.00;;;12.13;100.00
9738;BME280;4908;47.446;13.900;2023-09-08T00:14:54;93398.81;;;12.14;100.00
9738;BME280;4908;47.446;13.900;2023-09-08T00:17:21;93397.31;;;12.20;100.00
9738;BME280;4908;47.446;13.900;2023-09-08T00:19:48;93396.84;;;12.07;100.00
9738;BME280;4908;47.446;13.900;2023-09-08T00:22:16;93399.91;;;12.06;100.00
9738;BME280;4908;47.446;13.900;2023-09-08T00:24:43;93398.81;;;12.14;100.00
9738;BME280;4908;47.446;13.900;2023-09-08T00:27:10;93397.25;;;12.13;100.00
9738;BME280;4908;47.446;13.900;2023-09-08T00:29:37;93388.66;;;11.86;100.00
9738;BME280;4908;47.446;13.900;2023-09-08T00:32:06;93398.63;;;11.86;100.00
9738;BME280;4908;47.446;13.900;2023-09-08T00:34:33;93385.59;;;11.88;100.00
9738;BME280;4908;47.446;13.900;2023-09-08T00:37:01;93399.94;;;11.62;100.00
9738;BME280;4908;47.446;13.900;2023-09-08T00:39:34;93397.81;;;11.82;100.00
9738;BME280;4908;47.446;13.900;2023-09-08T00:42:02;93399.41;;;11.90;100.00
9738;BME280;4908;47.446;13.900;2023-09-08T00:44:29;93392.44;;;11.78;100.00
9738;BME280;4908;47.446;13.900;2023-09-08T00:46:56;93390.19;;;11.84;100.00
9738;BME280;4908;47.446;13.900;2023-09-08T00:49:25;93393.66;;;11.88;100.00
9738;BME280;4908;47.446;13.900;2023-09-08T00:51:53;93390.94;;;11.84;100.00
9738;BME280;4908;47.446;13.900;2023-09-08T00:54:20;93383.22;;;11.76;100.00
9738;BME280;4908;47.446;13.900;2023-09-08T00:56:48;93385.47;;;11.66;100.00
9738;BME280;4908;47.446;13.900;2023-09-08T00:59:19;93387.75;;;11.68;100.00
9738;BME280;4908;47.446;13.900;2023-09-08T01:01:46;93390.09;;;11.69;100.00
9738;BME280;4908;47.446;13.900;2023-09-08T01:04:13;93389.34;;;11.73;100.00
9738;BME280;4908;47.446;13.900;2023-09-08T01:06:42;93385.56;;;11.81;100.00
9738;BME280;4908;47.446;13.900;2023-09-08T01:09:09;93388.97;;;11.74;100.00
9738;BME280;4908;47.446;13.900;2023-09-08T01:11:39;93389.34;;;11.73;100.00
9738;BME280;4908;47.446;13.900;2023-09-08T01:14:07;93388.88;;;11.63;100.00
9738;BME280;4908;47.446;13.900;2023-09-08T01:16:34;93393.75;;;11.54;100.00
9738;BME280;4908;47.446;13.900;2023-09-08T01:19:03;93385.22;;;11.38;100.00
9738;BME280;4908;47.446;13.900;2023-09-08T01:21:55;93383.72;;;11.44;100.00
9738;BME280;4908;47.446;13.900;2023-09-08T01:24:44;93390.78;;;11.19;100.00
9738;BME280;4908;47.446;13.900;2023-09-08T01:27:18;93393.44;;;11.19;100.00
9738;BME280;4908;47.446;13.900;2023-09-08T01:29:49;93392.63;;;11.12;100.00
9738;BME280;4908;47.446;13.900;2023-09-08T01:32:17;93389.03;;;11.37;100.00
9738;BME280;4908;47.446;13.900;2023-09-08T01:34:44;93389.38;;;11.32;100.00
9738;BME280;4908;47.446;13.900;2023-09-08T01:37:12;93392.88;;;11.36;100.00
9738;BME280;4908;47.446;13.900;2023-09-08T01:39:39;93388.22;;;11.33;100.00
9738;BME280;4908;47.446;13.900;2023-09-08T01:42:06;93391.34;;;11.39;100.00
9738;BME280;4908;47.446;13.900;2023-09-08T01:44:35;93382.84;;;11.33;100.00
9738;BME280;4908;47.446;13.900;2023-09-08T01:47:02;93380.66;;;11.02;100.00
9738;BME280;4908;47.446;13.900;2023-09-08T01:49:30;93386.00;;;11.02;100.00
9738;BME280;4908;47.446;13.900;2023-09-08T01:51:57;93385.69;;;11.07;100.00
9738;BME280;4908;47.446;13.900;2023-09-08T01:54:24;93386.03;;;11.06;100.00
9738;BME280;4908;47.446;13.900;2023-09-08T01:56:51;93388.88;;;11.20;100.00
9738;BME280;4908;47.446;13.900;2023-09-08T01:59:18;93380.00;;;11.12;100.00
9738;BME280;4908;47.446;13.900;2023-09-08T02:01:47;93383.38;;;11.06;100.00
9738;BME280;4908;47.446;13.900;2023-09-08T02:04:14;93386.41;;;11.04;100.00
9738;BME280;4908;47.446;13.900;2023-09-08T02:06:41;93383.13;;;10.81;100.00
9738;BME280;4908;47.446;13.900;2023-09-08T02:09:11;93380.03;;;10.79;100.00
9738;BME280;4908;47.446;13.900;2023-09-08T02:11:38;93379.66;;;10.80;100.00
9738;BME280;4908;47.446;13.900;2023-09-08T02:14:05;93375.50;;;10.83;100.00
9738;BME280;4908;47.446;13.900;2023-09-08T02:16:33;93379.03;;;10.94;100.00
9738;BME280;4908;47.446;13.900;2023-09-08T02:19:02;93374.44;;;10.91;100.00
9738;BME280;4908;47.446;13.900;2023-09-08T02:21:29;93381.72;;;10.94;100.00
9738;BME280;4908;47.446;13.900;2023-09-08T02:23:56;93372.44;;;10.84;100.00
9738;BME280;4908;47.446;13.900;2023-09-08T02:26:24;93377.06;;;10.84;100.00
9738;BME280;4908;47.446;13.900;2023-09-08T02:28:52;93370.88;;;10.80;100.00
9738;BME280;4908;47.446;13.900;2023-09-08T02:31:19;93372.81;;;10.83;100.00
9738;BME280;4908;47.446;13.900;2023-09-08T02:33:46;93370.88;;;10.80;100.00
9738;BME280;4908;47.446;13.900;2023-09-08T02:36:15;93371.59;;;10.77;100.00
9738;BME280;4908;47.446;13.900;2023-09-08T02:38:42;93365.56;;;10.83;100.00
9738;BME280;4908;47.446;13.900;2023-09-08T02:41:09;93371.53;;;10.70;100.00
9738;BME280;4908;47.446;13.900;2023-09-08T02:43:37;93369.22;;;10.68;100.00
9738;BME280;4908;47.446;13.900;2023-09-08T02:46:04;93369.13;;;10.61;100.00
9738;BME280;4908;47.446;13.900;2023-09-08T02:48:31;93375.19;;;10.55;100.00
9738;BME280;4908;47.446;13.900;2023-09-08T02:50:58;93371.31;;;10.49;100.00
9738;BME280;4908;47.446;13.900;2023-09-08T02:53:27;93372.63;;;10.32;100.00
9738;BME280;4908;47.446;13.900;2023-09-08T02:55:54;93372.59;;;10.29;100.00
9738;BME280;4908;47.446;13.900;2023-09-08T02:58:22;93363.09;;;10.35;100.00
9738;BME280;4908;47.446;13.900;2023-09-08T03:00:49;93360.09;;;10.40;100.00
9738;BME280;4908;47.446;13.900;2023-09-08T03:03:17;93363.88;;;10.09;100.00
9738;BME280;4908;47.446;13.900;2023-09-08T03:05:45;93368.78;;;10.04;100.00
9738;BME280;4908;47.446;13.900;2023-09-08T03:08:12;93367.03;;;10.15;100.00
9738;BME280;4908;47.446;13.900;2023-09-08T03:10:40;93375.06;;;10.15;100.00
9738;BME280;4908;47.446;13.900;2023-09-08T03:13:08;93374.56;;;10.06;100.00
9738;BME280;4908;47.446;13.900;2023-09-08T03:15:35;93374.56;;;10.06;100.00
9738;BME280;4908;47.446;13.900;2023-09-08T03:18:02;93368.41;;;10.05;100.00
9738;BME280;4908;47.446;13.900;2023-09-08T03:20:29;93366.03;;;9.97;100.00
9738;BME280;4908;47.446;13.900;2023-09-08T03:22:56;93367.47;;;9.90;100.00
9738;BME280;4908;47.446;13.900;2023-09-08T03:25:24;93368.97;;;9.88;100.00
9738;BME280;4908;47.446;13.900;2023-09-08T03:27:53;93359.44;;;9.90;100.00
9738;BME280;4908;47.446;13.900;2023-09-08T03:30:20;93362.84;;;9.87;100.00
9738;BME280;4908;47.446;13.900;2023-09-08T03:32:47;93359.56;;;9.71;100.00
9738;BME280;4908;47.446;13.900;2023-09-08T03:35:14;93359.56;;;9.71;100.00
9738;BME280;4908;47.446;13.900;2023-09-08T03:37:41;93361.50;;;9.48;100.00
9738;BME280;4908;47.446;13.900;2023-09-08T03:40:09;93360.75;;;9.48;100.00
9738;BME280;4908;47.446;13.900;2023-09-08T03:42:37;93363.66;;;9.39;100.00
9738;BME280;4908;47.446;13.900;2023-09-08T03:45:06;93366.75;;;9.41;100.00
9738;BME280;4908;47.446;13.900;2023-09-08T03:47:33;93370.66;;;9.47;100.00
9738;BME280;4908;47.446;13.900;2023-09-08T03:50:01;93365.25;;;9.44;100.00
9738;BME280;4908;47.446;13.900;2023-09-08T03:52:28;93367.56;;;9.45;100.00
9738;BME280;4908;47.446;13.900;2023-09-08T03:54:55;93368.00;;;9.47;100.00
9738;BME280;4908;47.446;13.900;2023-09-08T03:57:22;93365.91;;;9.37;100.00
9738;BME280;4908;47.446;13.900;2023-09-08T03:59:49;93365.25;;;9.44;100.00
9738;BME280;4908;47.446;13.900;2023-09-08T04:02:18;93375.00;;;9.33;100.00
9738;BME280;4908;47.446;13.900;2023-09-08T04:04:45;93365.09;;;9.33;100.00
9738;BME280;4908;47.446;13.900;2023-09-08T04:07:12;93368.16;;;9.35;100.00
9738;BME280;4908;47.446;13.900;2023-09-08T04:09:39;93367.47;;;9.38;100.00
9738;BME280;4908;47.446;13.900;2023-09-08T04:12:07;93363.91;;;9.08;100.00
9738;BME280;4908;47.446;13.900;2023-09-08T04:14:36;93374.00;;;9.18;100.00
9738;BME280;4908;47.446;13.900;2023-09-08T04:17:03;93367.25;;;9.24;100.00
9738;BME280;4908;47.446;13.900;2023-09-08T04:19:32;93367.09;;;9.17;100.00
9738;BME280;4908;47.446;13.900;2023-09-08T04:21:59;93365.53;;;9.13;100.00
9738;BME280;4908;47.446;13.900;2023-09-08T04:24:26;93364.75;;;9.12;100.00
9738;BME280;4908;47.446;13.900;2023-09-08T04:26:53;93370.09;;;9.12;100.00
9738;BME280;4908;47.446;13.900;2023-09-08T04:29:21;93371.16;;;9.07;100.00
9738;BME280;4908;47.446;13.900;2023-09-08T04:31:48;93378.84;;;9.09;100.00
9738;BME280;4908;47.446;13.900;2023-09-08T04:34:15;93379.25;;;9.11;100.00
9738;BME280;4908;47.446;13.900;2023-09-08T04:36:43;93377.63;;;9.07;100.00
9738;BME280;4908;47.446;13.900;2023-09-08T04:39:11;93376.06;;;9.05;100.00
9738;BME280;4908;47.446;13.900;2023-09-08T04:41:38;93379.25;;;9.11;100.00
9738;BME280;4908;47.446;13.900;2023-09-08T04:44:05;93386.97;;;9.16;100.00
9738;BME280;4908;47.446;13.900;2023-09-08T04:46:35;93385.03;;;8.94;100.00
9738;BME280;4908;47.446;13.900;2023-09-08T04:49:02;93393.47;;;8.96;100.00
9738;BME280;4908;47.446;13.900;2023-09-08T04:51:29;93384.19;;;8.90;100.00
9738;BME280;4908;47.446;13.900;2023-09-08T04:53:58;93391.22;;;8.98;100.00
9738;BME280;4908;47.446;13.900;2023-09-08T04:56:25;93391.53;;;8.93;100.00
9738;BME280;4908;47.446;13.900;2023-09-08T04:58:52;93394.13;;;8.89;100.00
9738;BME280;4908;47.446;13.900;2023-09-08T05:01:20;93397.97;;;8.92;100.00
9738;BME280;4908;47.446;13.900;2023-09-08T05:03:47;93393.03;;;8.94;100.00
9738;BME280;4908;47.446;13.900;2023-09-08T05:06:15;93392.63;;;8.92;100.00
9738;BME280;4908;47.446;13.900;2023-09-08T05:08:42;93391.88;;;8.91;100.00
9738;BME280;4908;47.446;13.900;2023-09-08T05:11:11;93398.94;;;9.03;100.00
9738;BME280;4908;47.446;13.900;2023-09-08T05:13:38;93394.44;;;9.07;100.00
9738;BME280;4908;47.446;13.900;2023-09-08T05:16:05;93401.31;;;9.08;100.00
9738;BME280;4908;47.446;13.900;2023-09-08T05:18:38;93405.72;;;8.97;100.00
9738;BME280;4908;47.446;13.900;2023-09-08T05:21:05;93395.28;;;9.11;100.00
9738;BME280;4908;47.446;13.900;2023-09-08T05:23:33;93399.59;;;9.19;100.00
9738;BME280;4908;47.446;13.900;2023-09-08T05:26:00;93396.63;;;9.24;100.00
9738;BME280;4908;47.446;13.900;2023-09-08T05:28:29;93408.25;;;9.35;100.00
9738;BME280;4908;47.446;13.900;2023-09-08T05:30:56;93407.25;;;9.43;100.00
9738;BME280;4908;47.446;13.900;2023-09-08T05:33:23;93410.56;;;9.59;100.00
9738;BME280;4908;47.446;13.900;2023-09-08T05:35:50;93414.69;;;9.79;100.00
9738;BME280;4908;47.446;13.900;2023-09-08T05:38:17;93414.75;;;9.83;100.00
9738;BME280;4908;47.446;13.900;2023-09-08T05:40:45;93414.94;;;9.97;100.00
9738;BME280;4908;47.446;13.900;2023-09-08T05:43:12;93426.50;;;10.05;100.00
9738;BME280;4908;47.446;13.900;2023-09-08T05:45:40;93422.88;;;10.16;100.00
9738;BME280;4908;47.446;13.900;2023-09-08T05:48:07;93419.31;;;10.35;100.00
9738;BME280;4908;47.446;13.900;2023-09-08T05:50:35;93420.13;;;10.39;100.00
9738;BME280;4908;47.446;13.900;2023-09-08T05:53:03;93424.44;;;10.47;100.00
9738;BME280;4908;47.446;13.900;2023-09-08T05:55:30;93424.94;;;10.56;100.00
9738;BME280;4908;47.446;13.900;2023-09-08T05:57:57;93424.25;;;10.62;100.00
9738;BME280;4908;47.446;13.900;2023-09-08T06:00:25;93422.84;;;10.72;100.00
9738;BME280;4908;47.446;13.900;2023-09-08T06:02:53;93425.28;;;10.84;100.00
9738;BME280;4908;47.446;13.900;2023-09-08T06:05:20;93437.59;;;10.92;100.00
9738;BME280;4908;47.446;13.900;2023-09-08T06:07:48;93440.19;;;11.18;100.00
9738;BME280;4908;47.446;13.900;2023-09-08T06:10:15;93428.69;;;11.18;100.00
9738;BME280;4908;47.446;13.900;2023-09-08T06:12:42;93428.03;;;11.31;100.00
9738;BME280;4908;47.446;13.900;2023-09-08T06:15:10;93423.88;;;11.37;100.00
9738;BME280;4908;47.446;13.900;2023-09-08T06:17:37;93427.03;;;11.46;100.00
9738;BME280;4908;47.446;13.900;2023-09-08T06:20:07;93425.06;;;11.40;100.00
9738;BME280;4908;47.446;13.900;2023-09-08T06:22:34;93420.97;;;11.56;100.00
9738;BME280;4908;47.446;13.900;2023-09-08T06:25:01;93420.66;;;11.61;100.00
9738;BME280;4908;47.446;13.900;2023-09-08T06:27:29;93417.56;;;11.59;100.00
9738;BME280;4908;47.446;13.900;2023-09-08T06:29:56;93418.56;;;11.85;100.00
9738;BME280;4908;47.446;13.900;2023-09-08T06:32:23;93418.59;;;11.92;100.00
9738;BME280;4908;47.446;13.900;2023-09-08T06:34:50;93414.78;;;11.93;100.00
9738;BME280;4908;47.446;13.900;2023-09-08T06:37:19;93415.25;;;12.09;100.00
9738;BME280;4908;47.446;13.900;2023-09-08T06:39:46;93412.63;;;12.16;100.00
9738;BME280;4908;47.446;13.900;2023-09-08T06:42:13;93417.72;;;12.28;100.00
9738;BME280;4908;47.446;13.900;2023-09-08T06:44:40;93414.69;;;12.40;100.00
9738;BME280;4908;47.446;13.900;2023-09-08T06:47:08;93416.66;;;12.50;100.00
9738;BME280;4908;47.446;13.900;2023-09-08T06:49:35;93412.84;;;12.51;100.00
9738;BME280;4908;47.446;13.900;2023-09-08T06:52:02;93417.09;;;12.63;100.00
9738;BME280;4908;47.446;13.900;2023-09-08T06:54:31;93418.28;;;12.72;100.00
9738;BME280;4908;47.446;13.900;2023-09-08T06:56:59;93418.28;;;12.69;100.00
9738;BME280;4908;47.446;13.900;2023-09-08T06:59:26;93413.72;;;12.76;100.00
9738;BME280;4908;47.446;13.900;2023-09-08T07:01:53;93412.22;;;12.89;100.00
9738;BME280;4908;47.446;13.900;2023-09-08T07:04:20;93421.13;;;13.07;100.00
9738;BME280;4908;47.446;13.900;2023-09-08T07:06:47;93422.31;;;13.20;100.00
9738;BME280;4908;47.446;13.900;2023-09-08T07:09:15;93425.41;;;13.33;100.00
9738;BME280;4908;47.446;13.900;2023-09-08T07:11:44;93420.81;;;13.40;100.00
9738;BME280;4908;47.446;13.900;2023-09-08T07:14:12;93418.13;;;13.47;100.00
9738;BME280;4908;47.446;13.900;2023-09-08T07:16:39;93419.28;;;13.54;100.00
9738;BME280;4908;47.446;13.900;2023-09-08T07:19:06;93420.06;;;13.65;100.00
9738;BME280;4908;47.446;13.900;2023-09-08T07:21:33;93418.53;;;13.85;100.00
9738;BME280;4908;47.446;13.900;2023-09-08T07:24:00;93413.13;;;13.95;100.00
9738;BME280;4908;47.446;13.900;2023-09-08T07:26:28;93414.28;;;14.01;100.00
9738;BME280;4908;47.446;13.900;2023-09-08T07:28:56;93408.50;;;14.17;100.00
9738;BME280;4908;47.446;13.900;2023-09-08T07:31:24;93408.88;;;14.15;100.00
9738;BME280;4908;47.446;13.900;2023-09-08T07:33:51;93406.19;;;14.33;100.00
9738;BME280;4908;47.446;13.900;2023-09-08T07:36:18;93403.84;;;14.42;100.00
9738;BME280;4908;47.446;13.900;2023-09-08T07:38:45;93406.94;;;14.44;100.00
9738;BME280;4908;47.446;13.900;2023-09-08T07:41:12;93403.84;;;14.49;100.00
9738;BME280;4908;47.446;13.900;2023-09-08T07:43:40;93402.28;;;14.59;100.00
9738;BME280;4908;47.446;13.900;2023-09-08T07:46:11;93399.53;;;14.69;100.00
9738;BME280;4908;47.446;13.900;2023-09-08T07:48:38;93405.66;;;14.80;100.00
9738;BME280;4908;47.446;13.900;2023-09-08T07:51:06;93408.28;;;14.94;100.00
9738;BME280;4908;47.446;13.900;2023-09-08T07:53:33;93404.75;;;15.11;100.00
9738;BME280;4908;47.446;13.900;2023-09-08T07:56:00;93398.91;;;15.20;100.00
9738;BME280;4908;47.446;13.900;2023-09-08T07:58:28;93401.50;;;15.38;100.00
9738;BME280;4908;47.446;13.900;2023-09-08T08:00:55;93397.19;;;15.51;100.00
9738;BME280;4908;47.446;13.900;2023-09-08T08:03:23;93394.88;;;15.53;100.00
9738;BME280;4908;47.446;13.900;2023-09-08T08:05:51;93397.97;;;15.51;100.00
9738;BME280;4908;47.446;13.900;2023-09-08T08:08:18;93398.69;;;15.59;100.00
9738;BME280;4908;47.446;13.900;2023-09-08T08:10:45;93400.84;;;15.78;100.00
9738;BME280;4908;47.446;13.900;2023-09-08T08:13:12;93398.38;;;15.97;100.00
9738;BME280;4908;47.446;13.900;2023-09-08T08:15:40;93399.09;;;16.05;100.00
9738;BME280;4908;47.446;13.900;2023-09-08T08:18:08;93399.69;;;16.23;100.00
9738;BME280;4908;47.446;13.900;2023-09-08T08:20:38;93398.09;;;16.29;100.00
9738;BME280;4908;47.446;13.900;2023-09-08T08:23:06;93406.50;;;16.38;100.00
9738;BME280;4908;47.446;13.900;2023-09-08T08:25:34;93390.94;;;16.53;100.00
9738;BME280;4908;47.446;13.900;2023-09-08T08:28:01;93386.47;;;16.73;100.00
9738;BME280;4908;47.446;13.900;2023-09-08T08:30:28;93386.00;;;16.78;100.00
9738;BME280;4908;47.446;13.900;2023-09-08T08:32:56;93387.69;;;16.68;100.00
9738;BME280;4908;47.446;13.900;2023-09-08T08:35:23;93391.28;;;16.88;100.00
9738;BME280;4908;47.446;13.900;2023-09-08T08:37:52;93385.66;;;17.06;100.00
9738;BME280;4908;47.446;13.900;2023-09-08T08:40:19;93387.03;;;17.18;100.00
9738;BME280;4908;47.446;13.900;2023-09-08T08:42:46;93377.34;;;17.20;100.00
9738;BME280;4908;47.446;13.900;2023-09-08T08:45:15;93372.44;;;17.12;100.00
9738;BME280;4908;47.446;13.900;2023-09-08T08:47:44;93367.66;;;17.23;100.00
9738;BME280;4908;47.446;13.900;2023-09-08T08:50:12;93375.16;;;17.38;100.00
9738;BME280;4908;47.446;13.900;2023-09-08T08:52:39;93369.53;;;17.56;100.00
9738;BME280;4908;47.446;13.900;2023-09-08T08:55:08;93361.28;;;17.63;100.00
9738;BME280;4908;47.446;13.900;2023-09-08T08:57:37;93375.53;;;17.67;100.00
9738;BME280;4908;47.446;13.900;2023-09-08T09:00:06;93358.59;;;17.86;100.00
9738;BME280;4908;47.446;13.900;2023-09-08T09:02:36;93364.19;;;17.99;100.00
9738;BME280;4908;47.446;13.900;2023-09-08T09:05:03;93365.56;;;18.10;100.00
9738;BME280;4908;47.446;13.900;2023-09-08T09:07:32;93359.34;;;18.10;100.00
9738;BME280;4908;47.446;13.900;2023-09-08T09:09:58;93357.88;;;18.05;100.00
9738;BME280;4908;47.446;13.900;2023-09-08T09:12:27;93356.34;;;18.27;100.00
9738;BME280;4908;47.446;13.900;2023-09-08T09:14:54;93352.47;;;18.28;100.00
9738;BME280;4908;47.446;13.900;2023-09-08T09:17:21;93350.31;;;18.39;100.00
9738;BME280;4908;47.446;13.900;2023-09-08T09:19:48;93347.94;;;18.41;100.00
9738;BME280;4908;47.446;13.900;2023-09-08T09:22:19;93354.75;;;18.72;100.00
9738;BME280;4908;47.446;13.900;2023-09-08T09:24:48;93344.44;;;18.84;100.00
9738;BME280;4908;47.446;13.900;2023-09-08T09:27:15;93342.81;;;19.06;100.00
9738;BME280;4908;47.446;13.900;2023-09-08T09:29:47;93342.47;;;19.04;100.00
9738;BME280;4908;47.446;13.900;2023-09-08T09:32:16;93336.63;;;19.05;100.00
9738;BME280;4908;47.446;13.900;2023-09-08T09:34:50;93325.91;;;19.34;100.00
9738;BME280;4908;47.446;13.900;2023-09-08T09:37:19;93322.81;;;19.67;100.00
9738;BME280;4908;47.446;13.900;2023-09-08T09:39:48;93322.72;;;19.71;100.00
9738;BME280;4908;47.446;13.900;2023-09-08T09:42:17;93324.59;;;19.58;100.00
9738;BME280;4908;47.446;13.900;2023-09-08T09:44:46;93318.81;;;19.88;100.00
9738;BME280;4908;47.446;13.900;2023-09-08T09:47:14;93325.50;;;20.00;100.00
9738;BME280;4908;47.446;13.900;2023-09-08T09:49:43;93322.22;;;19.92;100.00
9738;BME280;4908;47.446;13.900;2023-09-08T09:52:11;93317.25;;;20.03;100.00
9738;BME280;4908;47.446;13.900;2023-09-08T09:54:40;93318.09;;;20.16;100.00
9738;BME280;4908;47.446;13.900;2023-09-08T09:57:09;93316.94;;;20.01;100.00
9738;BME280;4908;47.446;13.900;2023-09-08T09:59:39;93311.56;;;20.14;100.00
9738;BME280;4908;47.446;13.900;2023-09-08T10:02:11;93307.66;;;20.15;100.00
9738;BME280;4908;47.446;13.900;2023-09-08T10:04:40;93300.72;;;20.42;100.00
9738;BME280;4908;47.446;13.900;2023-09-08T10:07:07;93301.94;;;20.54;100.00
9738;BME280;4908;47.446;13.900;2023-09-08T10:09:36;93297.75;;;20.66;100.00
9738;BME280;4908;47.446;13.900;2023-09-08T10:12:04;93298.75;;;20.72;100.00
9738;BME280;4908;47.446;13.900;2023-09-08T10:14:35;93295.66;;;20.98;100.00
9738;BME280;4908;47.446;13.900;2023-09-08T10:17:04;93298.06;;;20.96;100.00
9738;BME280;4908;47.446;13.900;2023-09-08T10:19:34;93291.66;;;21.03;100.00
9738;BME280;4908;47.446;13.900;2023-09-08T10:22:10;93281.84;;;21.18;100.00
9738;BME280;4908;47.446;13.900;2023-09-08T10:24:40;93286.09;;;21.31;100.00
9738;BME280;4908;47.446;13.900;2023-09-08T10:27:10;93281.31;;;21.23;100.00
9738;BME280;4908;47.446;13.900;2023-09-08T10:29:38;93276.84;;;21.41;100.00
9738;BME280;4908;47.446;13.900;2023-09-08T10:32:07;93274.13;;;21.54;100.00
9738;BME280;4908;47.446;13.900;2023-09-08T10:34:36;93270.94;;;21.68;100.00
9738;BME280;4908;47.446;13.900;2023-09-08T10:37:18;93268.88;;;21.72;100.00
9738;BME280;4908;47.446;13.900;2023-09-08T10:39:45;93268.22;;;21.68;100.00
9738;BME280;4908;47.446;13.900;2023-09-08T10:42:23;93259.03;;;21.87;100.00
9738;BME280;4908;47.446;13.900;2023-09-08T10:44:57;93261.06;;;21.96;100.00
9738;BME280;4908;47.446;13.900;2023-09-08T10:47:25;93256.78;;;22.07;100.00
9738;BME280;4908;47.446;13.900;2023-09-08T10:49:53;93255.66;;;22.17;100.00
9738;BME280;4908;47.446;13.900;2023-09-08T10:52:24;93262.03;;;22.36;100.00
9738;BME280;4908;47.446;13.900;2023-09-08T10:54:53;93245.28;;;22.47;99.89
9738;BME280;4908;47.446;13.900;2023-09-08T10:57:22;93246.16;;;22.44;100.00
9738;BME280;4908;47.446;13.900;2023-09-08T10:59:51;93244.63;;;22.21;100.00
9738;BME280;4908;47.446;13.900;2023-09-08T11:02:33;93241.72;;;22.37;96.45
9738;BME280;4908;47.446;13.900;2023-09-08T11:05:03;93243.03;;;22.67;98.54
9738;BME280;4908;47.446;13.900;2023-09-08T11:07:33;93232.22;;;22.85;94.45
9738;BME280;4908;47.446;13.900;2023-09-08T11:10:00;93227.09;;;22.96;98.98
9738;BME280;4908;47.446;13.900;2023-09-08T11:12:28;93222.59;;;23.11;93.66
9738;BME280;4908;47.446;13.900;2023-09-08T11:14:55;93221.59;;;23.27;95.35
9738;BME280;4908;47.446;13.900;2023-09-08T11:17:25;93210.59;;;23.39;94.25
9738;BME280;4908;47.446;13.900;2023-09-08T11:19:54;93222.50;;;23.63;90.39
9738;BME280;4908;47.446;13.900;2023-09-08T11:22:24;93217.97;;;23.78;90.25
9738;BME280;4908;47.446;13.900;2023-09-08T11:24:52;93213.41;;;23.75;87.82
9738;BME280;4908;47.446;13.900;2023-09-08T11:27:22;93214.56;;;24.05;89.49
9738;BME280;4908;47.446;13.900;2023-09-08T11:29:50;93214.09;;;24.16;80.42
9738;BME280;4908;47.446;13.900;2023-09-08T11:32:17;93211.34;;;24.16;75.22
9738;BME280;4908;47.446;13.900;2023-09-08T11:34:45;93199.03;;;24.20;65.58
9738;BME280;4908;47.446;13.900;2023-09-08T11:37:13;93202.22;;;24.10;65.07
9738;BME280;4908;47.446;13.900;2023-09-08T11:39:44;93204.38;;;24.15;75.56
9738;BME280;4908;47.446;13.900;2023-09-08T11:42:13;93205.88;;;24.34;66.46
9738;BME280;4908;47.446;13.900;2023-09-08T11:44:40;93199.13;;;24.62;74.10
9738;BME280;4908;47.446;13.900;2023-09-08T11:47:09;93201.84;;;24.89;72.06
9738;BME280;4908;47.446;13.900;2023-09-08T11:49:37;93203.50;;;24.96;62.01
9738;BME280;4908;47.446;13.900;2023-09-08T11:52:05;93209.06;;;25.19;80.16
9738;BME280;4908;47.446;13.900;2023-09-08T11:54:34;93191.84;;;25.19;75.35
9738;BME280;4908;47.446;13.900;2023-09-08T11:57:04;93200.44;;;25.44;74.21
9738;BME280;4908;47.446;13.900;2023-09-08T11:59:34;93200.69;;;25.79;76.42
9738;BME280;4908;47.446;13.900;2023-09-08T12:02:02;93187.03;;;25.94;56.21
9738;BME280;4908;47.446;13.900;2023-09-08T12:04:29;93189.66;;;26.12;63.75
9738;BME280;4908;47.446;13.900;2023-09-08T12:06:56;93183.75;;;26.28;65.23
9738;BME280;4908;47.446;13.900;2023-09-08T12:09:23;93185.78;;;26.42;55.87
9738;BME280;4908;47.446;13.900;2023-09-08T12:11:51;93171.78;;;26.69;63.39
9738;BME280;4908;47.446;13.900;2023-09-08T12:14:19;93173.97;;;26.80;48.53
9738;BME280;4908;47.446;13.900;2023-09-08T12:16:46;93181.38;;;26.88;57.98
9738;BME280;4908;47.446;13.900;2023-09-08T12:19:29;93170.75;;;27.10;46.06
9738;BME280;4908;47.446;13.900;2023-09-08T12:21:58;93171.84;;;27.33;49.44
9738;BME280;4908;47.446;13.900;2023-09-08T12:24:45;93165.22;;;27.60;45.75
9738;BME280;4908;47.446;13.900;2023-09-08T12:27:14;93168.88;;;27.51;45.14
9738;BME280;4908;47.446;13.900;2023-09-08T12:29:51;93167.78;;;27.63;42.82
9738;BME280;4908;47.446;13.900;2023-09-08T12:32:20;93168.00;;;27.80;49.14
9738;BME280;4908;47.446;13.900;2023-09-08T12:34:47;93161.78;;;27.99;47.61
9738;BME280;4908;47.446;13.900;2023-09-08T12:37:14;93160.59;;;28.26;42.59
9738;BME280;4908;47.446;13.900;2023-09-08T12:39:41;93163.88;;;27.90;43.32
9738;BME280;4908;47.446;13.900;2023-09-08T12:42:09;93153.25;;;28.17;43.15
9738;BME280;4908;47.446;13.900;2023-09-08T12:44:36;93150.50;;;28.43;40.39
9738;BME280;4908;47.446;13.900;2023-09-08T12:47:05;93144.19;;;28.63;43.32
9738;BME280;4908;47.446;13.900;2023-09-08T12:49:32;93144.19;;;28.88;40.63
9738;BME280;4908;47.446;13.900;2023-09-08T12:51:59;93147.69;;;29.14;40.39
9738;BME280;4908;47.446;13.900;2023-09-08T12:54:26;93146.19;;;29.50;37.75
9738;BME280;4908;47.446;13.900;2023-09-08T12:56:54;93140.16;;;29.88;37.52
9738;BME280;4908;47.446;13.900;2023-09-08T12:59:21;93132.56;;;30.42;32.95
9738;BME280;4908;47.446;13.900;2023-09-08T13:01:48;93137.94;;;30.90;31.66
9738;BME280;4908;47.446;13.900;2023-09-08T13:04:16;93126.34;;;31.69;31.06
9738;BME280;4908;47.446;13.900;2023-09-08T13:06:44;93126.53;;;32.97;30.18
9738;BME280;4908;47.446;13.900;2023-09-08T13:09:12;93128.69;;;34.35;28.99